Aérodrome :
LOGIN :

S'inscrire | Disclaimer

   EN    FR    IT 

 










Légende :    VFR   VFR Marginal   IFR   IFR Intensif   IFR Très Intensif
Visi : 
Plafond : 
>= 8 km
>= 3000ft
5 à 8 km
1000 à 3000 ft
1500m à 5 km
500 à 1000 ft
800 à 1500m
200 à 500 ft
< 800m
< 200 ft
Symboles :   Orages  Brouillard  Fortes neiges  Fortes précipitations  Vent > 20 kt
SIGMETs :   Divers  Orages  Givrage  Turbulence  Onde Orograph.  Cendres Volcan.







- Altitude de l'aérodrome : 41 ft


LIRE - Pratica di Mare Air Base Pomezia

DERNIER METAR :
  • 161455Z 14012KT 9999 SCT060 23/20 Q1016 RMK BKN BKN100 VIS MIN 9999 WIND THR13 16010KT WIND THR31 /////KT BLU

METARs EXPIRÉS :
  • 161355Z 16013KT 9999 FEW040 SCT050 23/19 Q1016 RMK OVC BKN100 VIS MIN 9999 WIND THR13 17010KT WIND THR31 ////KT BLU
  • 161255Z 15011KT 9999 SCT060 23/19 Q1016 RMK BKN BKN100 VIS MIN 9999 WIND THR13 16009KT WIND THR31 /////KT BLU
  • 161155Z 14014KT 9999 FEW020 SCT060 24/18 Q1016 RMK BKN BKN100 VIS MIN 9999 WIND THR13 16011KT WIND THR31 /////KT BLU

TAF TAF LIRE
Valide du 16 à 15h jusqu'au 17 à 00h UTC


161400Z 1615/1624 16015KT 9999 FEW040 SCT050
TEMPO 1615/1618 RA SCT020 SCT035
PROB30
TEMPO 1615/1618 5000 SHRA FEW020CB BKN025
BECMG 1618/1620 09005KT
Pas de NOTAMs connus pour ce terrain.



MET'MAP, la Météo Aéronautique d'un coup d'oeil ! - Copyright ORBIFLY Décembre 2007 - Disclaimer

ORBIFLY MET'MAP TEAM :

Programmation & Développement : Alexandra Zaïnal
Conception & Développement : Baudouin d'Aumeries
Co-Programmation & Développement : Marc-Olivier Méhu
Soutien technique & logistique : Manuel Goepfert

Contact : metmap@orbifly.com




SOURCES & CREDITS :

   NOAA